sensor_id;sensor_type;location;lat;lon;timestamp;P1;durP1;ratioP1;P2;durP2;ratioP2
24159;SDS011;62385;41.594;23.808;2023-08-07T00:00:39;0.60;;;0.50;;
24159;SDS011;62385;41.594;23.808;2023-08-07T00:03:05;0.88;;;0.30;;
24159;SDS011;62385;41.594;23.808;2023-08-07T00:05:30;6.18;;;0.55;;
24159;SDS011;62385;41.594;23.808;2023-08-07T00:07:57;0.60;;;0.40;;
24159;SDS011;62385;41.594;23.808;2023-08-07T00:10:23;0.70;;;0.43;;
24159;SDS011;62385;41.594;23.808;2023-08-07T00:12:49;0.82;;;0.30;;
24159;SDS011;62385;41.594;23.808;2023-08-07T00:15:15;2.75;;;0.40;;
24159;SDS011;62385;41.594;23.808;2023-08-07T00:17:41;0.68;;;0.57;;
24159;SDS011;62385;41.594;23.808;2023-08-07T00:20:07;1.48;;;0.63;;
24159;SDS011;62385;41.594;23.808;2023-08-07T00:22:33;0.88;;;0.50;;
24159;SDS011;62385;41.594;23.808;2023-08-07T00:24:59;0.85;;;0.30;;
24159;SDS011;62385;41.594;23.808;2023-08-07T00:27:24;0.82;;;0.32;;
24159;SDS011;62385;41.594;23.808;2023-08-07T00:29:50;0.60;;;0.30;;
24159;SDS011;62385;41.594;23.808;2023-08-07T00:32:16;0.30;;;0.20;;
24159;SDS011;62385;41.594;23.808;2023-08-07T00:34:41;0.30;;;0.30;;
24159;SDS011;62385;41.594;23.808;2023-08-07T00:37:07;0.80;;;0.30;;
24159;SDS011;62385;41.594;23.808;2023-08-07T00:39:33;4.55;;;0.52;;
24159;SDS011;62385;41.594;23.808;2023-08-07T00:42:00;0.60;;;0.30;;
24159;SDS011;62385;41.594;23.808;2023-08-07T00:44:26;0.35;;;0.20;;
24159;SDS011;62385;41.594;23.808;2023-08-07T00:46:52;0.55;;;0.30;;
24159;SDS011;62385;41.594;23.808;2023-08-07T00:49:19;0.50;;;0.20;;
24159;SDS011;62385;41.594;23.808;2023-08-07T00:51:46;0.65;;;0.35;;
24159;SDS011;62385;41.594;23.808;2023-08-07T00:54:14;0.93;;;0.30;;
24159;SDS011;62385;41.594;23.808;2023-08-07T00:56:43;0.20;;;0.20;;
24159;SDS011;62385;41.594;23.808;2023-08-07T00:59:09;0.22;;;0.20;;
24159;SDS011;62385;41.594;23.808;2023-08-07T01:01:36;0.47;;;0.17;;
24159;SDS011;62385;41.594;23.808;2023-08-07T01:04:02;0.40;;;0.40;;
24159;SDS011;62385;41.594;23.808;2023-08-07T01:06:27;0.22;;;0.17;;
24159;SDS011;62385;41.594;23.808;2023-08-07T01:08:53;0.22;;;0.10;;
24159;SDS011;62385;41.594;23.808;2023-08-07T01:11:36;0.30;;;0.20;;
24159;SDS011;62385;41.594;23.808;2023-08-07T01:16:45;1.08;;;0.40;;
24159;SDS011;62385;41.594;23.808;2023-08-07T01:19:24;0.90;;;0.38;;
24159;SDS011;62385;41.594;23.808;2023-08-07T01:22:05;0.30;;;0.28;;
24159;SDS011;62385;41.594;23.808;2023-08-07T01:24:31;0.20;;;0.10;;
24159;SDS011;62385;41.594;23.808;2023-08-07T01:26:57;0.35;;;0.30;;
24159;SDS011;62385;41.594;23.808;2023-08-07T01:29:43;0.30;;;0.20;;
24159;SDS011;62385;41.594;23.808;2023-08-07T01:32:43;0.65;;;0.45;;
24159;SDS011;62385;41.594;23.808;2023-08-07T01:35:20;3.13;;;1.60;;
24159;SDS011;62385;41.594;23.808;2023-08-07T01:37:51;1.58;;;0.75;;
24159;SDS011;62385;41.594;23.808;2023-08-07T01:40:18;0.85;;;0.20;;
24159;SDS011;62385;41.594;23.808;2023-08-07T01:42:46;1.05;;;0.35;;
24159;SDS011;62385;41.594;23.808;2023-08-07T01:45:12;0.43;;;0.25;;
24159;SDS011;62385;41.594;23.808;2023-08-07T01:47:38;0.40;;;0.28;;
24159;SDS011;62385;41.594;23.808;2023-08-07T01:50:04;0.38;;;0.20;;
24159;SDS011;62385;41.594;23.808;2023-08-07T01:52:31;0.20;;;0.10;;
24159;SDS011;62385;41.594;23.808;2023-08-07T01:54:57;0.40;;;0.30;;
24159;SDS011;62385;41.594;23.808;2023-08-07T01:57:23;0.20;;;0.20;;
24159;SDS011;62385;41.594;23.808;2023-08-07T01:59:48;1.05;;;0.40;;
24159;SDS011;62385;41.594;23.808;2023-08-07T02:02:14;0.47;;;0.40;;
24159;SDS011;62385;41.594;23.808;2023-08-07T02:04:40;0.47;;;0.28;;
24159;SDS011;62385;41.594;23.808;2023-08-07T02:07:07;0.40;;;0.30;;
24159;SDS011;62385;41.594;23.808;2023-08-07T02:09:33;0.80;;;0.43;;
24159;SDS011;62385;41.594;23.808;2023-08-07T02:11:58;0.20;;;0.20;;
24159;SDS011;62385;41.594;23.808;2023-08-07T02:14:24;0.60;;;0.30;;
24159;SDS011;62385;41.594;23.808;2023-08-07T02:16:49;0.30;;;0.28;;
24159;SDS011;62385;41.594;23.808;2023-08-07T02:19:15;0.88;;;0.32;;
24159;SDS011;62385;41.594;23.808;2023-08-07T02:21:40;0.30;;;0.30;;
24159;SDS011;62385;41.594;23.808;2023-08-07T02:24:06;0.75;;;0.50;;
24159;SDS011;62385;41.594;23.808;2023-08-07T02:26:31;0.98;;;0.35;;
24159;SDS011;62385;41.594;23.808;2023-08-07T02:28:57;2.90;;;0.30;;
24159;SDS011;62385;41.594;23.808;2023-08-07T02:31:23;0.43;;;0.28;;
24159;SDS011;62385;41.594;23.808;2023-08-07T02:33:49;2.33;;;0.20;;
24159;SDS011;62385;41.594;23.808;2023-08-07T02:36:14;0.55;;;0.30;;
24159;SDS011;62385;41.594;23.808;2023-08-07T02:38:40;0.30;;;0.22;;
24159;SDS011;62385;41.594;23.808;2023-08-07T02:41:07;0.40;;;0.20;;
24159;SDS011;62385;41.594;23.808;2023-08-07T02:43:33;1.80;;;0.60;;
24159;SDS011;62385;41.594;23.808;2023-08-07T02:45:59;0.40;;;0.38;;
24159;SDS011;62385;41.594;23.808;2023-08-07T02:48:25;0.25;;;0.20;;
24159;SDS011;62385;41.594;23.808;2023-08-07T02:50:51;0.70;;;0.30;;
24159;SDS011;62385;41.594;23.808;2023-08-07T02:53:18;1.25;;;0.50;;
24159;SDS011;62385;41.594;23.808;2023-08-07T02:55:44;0.30;;;0.20;;
24159;SDS011;62385;41.594;23.808;2023-08-07T02:58:09;1.20;;;0.35;;
24159;SDS011;62385;41.594;23.808;2023-08-07T03:00:35;0.45;;;0.40;;
24159;SDS011;62385;41.594;23.808;2023-08-07T03:03:01;1.95;;;0.57;;
24159;SDS011;62385;41.594;23.808;2023-08-07T03:05:26;1.50;;;0.68;;
24159;SDS011;62385;41.594;23.808;2023-08-07T03:07:52;2.67;;;1.33;;
24159;SDS011;62385;41.594;23.808;2023-08-07T03:10:18;1.25;;;0.55;;
24159;SDS011;62385;41.594;23.808;2023-08-07T03:12:44;1.33;;;0.47;;
24159;SDS011;62385;41.594;23.808;2023-08-07T03:15:10;0.93;;;0.68;;
24159;SDS011;62385;41.594;23.808;2023-08-07T03:17:36;0.75;;;0.63;;
24159;SDS011;62385;41.594;23.808;2023-08-07T03:20:01;0.77;;;0.40;;
24159;SDS011;62385;41.594;23.808;2023-08-07T03:22:29;0.38;;;0.32;;
24159;SDS011;62385;41.594;23.808;2023-08-07T03:24:54;1.27;;;0.68;;
24159;SDS011;62385;41.594;23.808;2023-08-07T03:27:20;0.88;;;0.50;;
24159;SDS011;62385;41.594;23.808;2023-08-07T03:29:47;0.50;;;0.40;;
24159;SDS011;62385;41.594;23.808;2023-08-07T03:32:13;0.93;;;0.50;;
24159;SDS011;62385;41.594;23.808;2023-08-07T03:34:39;0.45;;;0.32;;
24159;SDS011;62385;41.594;23.808;2023-08-07T03:37:05;0.40;;;0.30;;
24159;SDS011;62385;41.594;23.808;2023-08-07T03:39:31;0.60;;;0.50;;
24159;SDS011;62385;41.594;23.808;2023-08-07T03:41:56;0.52;;;0.15;;
24159;SDS011;62385;41.594;23.808;2023-08-07T03:44:22;1.30;;;0.47;;
24159;SDS011;62385;41.594;23.808;2023-08-07T03:46:48;0.50;;;0.38;;
24159;SDS011;62385;41.594;23.808;2023-08-07T03:49:13;0.35;;;0.25;;
24159;SDS011;62385;41.594;23.808;2023-08-07T03:51:39;1.35;;;0.35;;
24159;SDS011;62385;41.594;23.808;2023-08-07T03:54:05;0.70;;;0.50;;
24159;SDS011;62385;41.594;23.808;2023-08-07T03:56:31;0.65;;;0.50;;
24159;SDS011;62385;41.594;23.808;2023-08-07T03:59:02;0.68;;;0.50;;
24159;SDS011;62385;41.594;23.808;2023-08-07T04:01:29;1.02;;;0.60;;
24159;SDS011;62385;41.594;23.808;2023-08-07T04:03:55;0.40;;;0.20;;
24159;SDS011;62385;41.594;23.808;2023-08-07T04:06:21;0.43;;;0.30;;
24159;SDS011;62385;41.594;23.808;2023-08-07T04:08:47;0.55;;;0.40;;
24159;SDS011;62385;41.594;23.808;2023-08-07T04:11:13;0.73;;;0.32;;
24159;SDS011;62385;41.594;23.808;2023-08-07T04:13:39;0.20;;;0.20;;
24159;SDS011;62385;41.594;23.808;2023-08-07T04:16:04;0.68;;;0.50;;
24159;SDS011;62385;41.594;23.808;2023-08-07T04:18:32;2.65;;;0.63;;
24159;SDS011;62385;41.594;23.808;2023-08-07T04:21:00;0.32;;;0.32;;
24159;SDS011;62385;41.594;23.808;2023-08-07T04:23:26;2.30;;;0.70;;
24159;SDS011;62385;41.594;23.808;2023-08-07T04:25:52;0.80;;;0.30;;
24159;SDS011;62385;41.594;23.808;2023-08-07T04:28:18;0.32;;;0.30;;
24159;SDS011;62385;41.594;23.808;2023-08-07T04:30:44;1.27;;;0.68;;
24159;SDS011;62385;41.594;23.808;2023-08-07T04:33:10;0.50;;;0.40;;
24159;SDS011;62385;41.594;23.808;2023-08-07T04:35:36;2.97;;;0.82;;
24159;SDS011;62385;41.594;23.808;2023-08-07T04:38:02;0.55;;;0.50;;
24159;SDS011;62385;41.594;23.808;2023-08-07T04:40:28;6.75;;;0.77;;
24159;SDS011;62385;41.594;23.808;2023-08-07T04:42:54;3.78;;;1.80;;
24159;SDS011;62385;41.594;23.808;2023-08-07T04:45:20;5.35;;;1.80;;
24159;SDS011;62385;41.594;23.808;2023-08-07T04:48:04;5.45;;;2.40;;
24159;SDS011;62385;41.594;23.808;2023-08-07T04:50:30;6.60;;;3.20;;
24159;SDS011;62385;41.594;23.808;2023-08-07T04:52:55;6.57;;;1.35;;
24159;SDS011;62385;41.594;23.808;2023-08-07T04:55:21;2.92;;;1.52;;
24159;SDS011;62385;41.594;23.808;2023-08-07T04:57:46;1.10;;;1.00;;
24159;SDS011;62385;41.594;23.808;2023-08-07T05:00:12;1.55;;;0.77;;
24159;SDS011;62385;41.594;23.808;2023-08-07T05:02:38;1.50;;;0.60;;
24159;SDS011;62385;41.594;23.808;2023-08-07T05:05:05;1.60;;;0.98;;
24159;SDS011;62385;41.594;23.808;2023-08-07T05:07:32;0.63;;;0.60;;
24159;SDS011;62385;41.594;23.808;2023-08-07T05:10:00;0.60;;;0.60;;
24159;SDS011;62385;41.594;23.808;2023-08-07T05:12:29;10.63;;;0.80;;
24159;SDS011;62385;41.594;23.808;2023-08-07T05:14:54;1.00;;;0.70;;
24159;SDS011;62385;41.594;23.808;2023-08-07T05:17:20;1.10;;;0.50;;
24159;SDS011;62385;41.594;23.808;2023-08-07T05:19:45;0.68;;;0.57;;
24159;SDS011;62385;41.594;23.808;2023-08-07T05:22:11;1.42;;;0.57;;
24159;SDS011;62385;41.594;23.808;2023-08-07T05:24:36;0.82;;;0.52;;
24159;SDS011;62385;41.594;23.808;2023-08-07T05:27:10;2.35;;;0.77;;
24159;SDS011;62385;41.594;23.808;2023-08-07T05:29:37;0.70;;;0.63;;
24159;SDS011;62385;41.594;23.808;2023-08-07T05:32:12;1.35;;;0.88;;
24159;SDS011;62385;41.594;23.808;2023-08-07T05:34:38;0.80;;;0.40;;
24159;SDS011;62385;41.594;23.808;2023-08-07T05:37:04;1.20;;;0.45;;
24159;SDS011;62385;41.594;23.808;2023-08-07T05:39:31;0.63;;;0.50;;
24159;SDS011;62385;41.594;23.808;2023-08-07T05:41:56;1.58;;;0.50;;
24159;SDS011;62385;41.594;23.808;2023-08-07T05:44:23;1.38;;;0.35;;
24159;SDS011;62385;41.594;23.808;2023-08-07T05:46:49;0.52;;;0.35;;
24159;SDS011;62385;41.594;23.808;2023-08-07T05:49:15;0.50;;;0.38;;
24159;SDS011;62385;41.594;23.808;2023-08-07T05:51:41;0.38;;;0.38;;
24159;SDS011;62385;41.594;23.808;2023-08-07T05:54:07;0.32;;;0.32;;
24159;SDS011;62385;41.594;23.808;2023-08-07T05:56:32;0.65;;;0.30;;
24159;SDS011;62385;41.594;23.808;2023-08-07T05:58:58;1.35;;;0.55;;
24159;SDS011;62385;41.594;23.808;2023-08-07T06:01:24;0.73;;;0.60;;
24159;SDS011;62385;41.594;23.808;2023-08-07T06:03:59;0.40;;;0.30;;
24159;SDS011;62385;41.594;23.808;2023-08-07T06:06:26;2.45;;;0.47;;
24159;SDS011;62385;41.594;23.808;2023-08-07T06:08:56;0.40;;;0.30;;
24159;SDS011;62385;41.594;23.808;2023-08-07T06:11:21;0.50;;;0.30;;
24159;SDS011;62385;41.594;23.808;2023-08-07T06:13:48;0.40;;;0.40;;
24159;SDS011;62385;41.594;23.808;2023-08-07T06:16:14;0.30;;;0.30;;
24159;SDS011;62385;41.594;23.808;2023-08-07T06:18:40;0.63;;;0.57;;
24159;SDS011;62385;41.594;23.808;2023-08-07T06:21:05;0.63;;;0.50;;
24159;SDS011;62385;41.594;23.808;2023-08-07T06:23:35;1.27;;;0.38;;
24159;SDS011;62385;41.594;23.808;2023-08-07T06:26:00;0.22;;;0.22;;
24159;SDS011;62385;41.594;23.808;2023-08-07T06:28:29;0.52;;;0.28;;
24159;SDS011;62385;41.594;23.808;2023-08-07T06:31:04;0.77;;;0.35;;
24159;SDS011;62385;41.594;23.808;2023-08-07T06:33:31;0.20;;;0.13;;
24159;SDS011;62385;41.594;23.808;2023-08-07T06:35:58;0.60;;;0.40;;
24159;SDS011;62385;41.594;23.808;2023-08-07T06:38:24;0.30;;;0.20;;
24159;SDS011;62385;41.594;23.808;2023-08-07T06:40:49;0.22;;;0.20;;
24159;SDS011;62385;41.594;23.808;2023-08-07T06:43:16;0.35;;;0.20;;
24159;SDS011;62385;41.594;23.808;2023-08-07T06:45:42;0.43;;;0.20;;
24159;SDS011;62385;41.594;23.808;2023-08-07T06:48:07;0.20;;;0.10;;
24159;SDS011;62385;41.594;23.808;2023-08-07T06:50:33;0.40;;;0.30;;
24159;SDS011;62385;41.594;23.808;2023-08-07T06:52:59;0.60;;;0.40;;
24159;SDS011;62385;41.594;23.808;2023-08-07T06:55:25;0.50;;;0.40;;
24159;SDS011;62385;41.594;23.808;2023-08-07T06:57:51;0.38;;;0.30;;
24159;SDS011;62385;41.594;23.808;2023-08-07T07:00:17;1.38;;;0.47;;
24159;SDS011;62385;41.594;23.808;2023-08-07T07:02:43;0.25;;;0.20;;
24159;SDS011;62385;41.594;23.808;2023-08-07T07:05:08;0.30;;;0.22;;
24159;SDS011;62385;41.594;23.808;2023-08-07T07:07:35;0.57;;;0.40;;
24159;SDS011;62385;41.594;23.808;2023-08-07T07:10:01;2.20;;;0.30;;
24159;SDS011;62385;41.594;23.808;2023-08-07T07:12:27;0.32;;;0.28;;
24159;SDS011;62385;41.594;23.808;2023-08-07T07:14:53;0.40;;;0.30;;
24159;SDS011;62385;41.594;23.808;2023-08-07T07:17:18;0.80;;;0.40;;
24159;SDS011;62385;41.594;23.808;2023-08-07T07:19:44;0.57;;;0.50;;
24159;SDS011;62385;41.594;23.808;2023-08-07T07:22:09;1.02;;;0.38;;
24159;SDS011;62385;41.594;23.808;2023-08-07T07:24:35;0.20;;;0.20;;
24159;SDS011;62385;41.594;23.808;2023-08-07T07:27:00;0.55;;;0.40;;
24159;SDS011;62385;41.594;23.808;2023-08-07T07:29:26;0.40;;;0.28;;
24159;SDS011;62385;41.594;23.808;2023-08-07T07:31:51;0.82;;;0.30;;
24159;SDS011;62385;41.594;23.808;2023-08-07T07:34:18;1.15;;;0.40;;
24159;SDS011;62385;41.594;23.808;2023-08-07T07:36:44;0.88;;;0.50;;
24159;SDS011;62385;41.594;23.808;2023-08-07T07:39:10;0.50;;;0.35;;
24159;SDS011;62385;41.594;23.808;2023-08-07T07:41:36;0.40;;;0.30;;
24159;SDS011;62385;41.594;23.808;2023-08-07T07:44:01;0.50;;;0.30;;
24159;SDS011;62385;41.594;23.808;2023-08-07T07:46:28;0.20;;;0.15;;
24159;SDS011;62385;41.594;23.808;2023-08-07T07:48:54;0.75;;;0.30;;
24159;SDS011;62385;41.594;23.808;2023-08-07T07:51:21;1.65;;;0.43;;
24159;SDS011;62385;41.594;23.808;2023-08-07T07:53:46;0.40;;;0.40;;
24159;SDS011;62385;41.594;23.808;2023-08-07T07:56:12;0.28;;;0.17;;
24159;SDS011;62385;41.594;23.808;2023-08-07T07:58:37;0.40;;;0.30;;
24159;SDS011;62385;41.594;23.808;2023-08-07T08:01:03;0.40;;;0.30;;
24159;SDS011;62385;41.594;23.808;2023-08-07T08:03:29;1.10;;;1.00;;
24159;SDS011;62385;41.594;23.808;2023-08-07T08:05:54;0.40;;;0.40;;
24159;SDS011;62385;41.594;23.808;2023-08-07T08:08:20;0.45;;;0.30;;
24159;SDS011;62385;41.594;23.808;2023-08-07T08:10:46;0.40;;;0.22;;
24159;SDS011;62385;41.594;23.808;2023-08-07T08:13:13;0.43;;;0.30;;
24159;SDS011;62385;41.594;23.808;2023-08-07T08:15:40;0.82;;;0.35;;
24159;SDS011;62385;41.594;23.808;2023-08-07T08:18:06;0.55;;;0.30;;
24159;SDS011;62385;41.594;23.808;2023-08-07T08:20:31;0.30;;;0.30;;
24159;SDS011;62385;41.594;23.808;2023-08-07T08:22:57;0.50;;;0.40;;
24159;SDS011;62385;41.594;23.808;2023-08-07T08:25:23;0.55;;;0.28;;
24159;SDS011;62385;41.594;23.808;2023-08-07T08:27:48;0.38;;;0.20;;
24159;SDS011;62385;41.594;23.808;2023-08-07T08:30:16;0.52;;;0.40;;
24159;SDS011;62385;41.594;23.808;2023-08-07T08:32:42;0.60;;;0.32;;
24159;SDS011;62385;41.594;23.808;2023-08-07T08:35:08;0.40;;;0.30;;
24159;SDS011;62385;41.594;23.808;2023-08-07T08:37:34;0.52;;;0.30;;
24159;SDS011;62385;41.594;23.808;2023-08-07T08:40:00;0.22;;;0.20;;
24159;SDS011;62385;41.594;23.808;2023-08-07T08:42:26;0.65;;;0.40;;
24159;SDS011;62385;41.594;23.808;2023-08-07T08:44:53;0.30;;;0.20;;
24159;SDS011;62385;41.594;23.808;2023-08-07T08:47:22;1.80;;;0.40;;
24159;SDS011;62385;41.594;23.808;2023-08-07T08:49:50;0.20;;;0.10;;
24159;SDS011;62385;41.594;23.808;2023-08-07T08:52:19;0.40;;;0.30;;
24159;SDS011;62385;41.594;23.808;2023-08-07T08:54:46;1.35;;;0.30;;
24159;SDS011;62385;41.594;23.808;2023-08-07T08:57:14;0.65;;;0.30;;
24159;SDS011;62385;41.594;23.808;2023-08-07T08:59:40;0.40;;;0.30;;
24159;SDS011;62385;41.594;23.808;2023-08-07T09:02:07;0.43;;;0.30;;
24159;SDS011;62385;41.594;23.808;2023-08-07T09:04:36;0.30;;;0.30;;
24159;SDS011;62385;41.594;23.808;2023-08-07T09:07:02;0.95;;;0.85;;
24159;SDS011;62385;41.594;23.808;2023-08-07T09:09:29;0.30;;;0.20;;
24159;SDS011;62385;41.594;23.808;2023-08-07T09:11:56;0.40;;;0.30;;
24159;SDS011;62385;41.594;23.808;2023-08-07T09:14:24;0.63;;;0.30;;
24159;SDS011;62385;41.594;23.808;2023-08-07T09:16:52;0.30;;;0.30;;
24159;SDS011;62385;41.594;23.808;2023-08-07T09:19:19;0.30;;;0.30;;
24159;SDS011;62385;41.594;23.808;2023-08-07T09:21:45;0.40;;;0.30;;
24159;SDS011;62385;41.594;23.808;2023-08-07T09:24:10;0.40;;;0.35;;
24159;SDS011;62385;41.594;23.808;2023-08-07T09:26:37;0.50;;;0.30;;
24159;SDS011;62385;41.594;23.808;2023-08-07T09:29:07;0.30;;;0.20;;
24159;SDS011;62385;41.594;23.808;2023-08-07T09:31:35;0.30;;;0.20;;
24159;SDS011;62385;41.594;23.808;2023-08-07T09:34:02;0.45;;;0.35;;
24159;SDS011;62385;41.594;23.808;2023-08-07T09:36:31;0.30;;;0.22;;
24159;SDS011;62385;41.594;23.808;2023-08-07T09:39:00;0.68;;;0.40;;
24159;SDS011;62385;41.594;23.808;2023-08-07T09:41:28;0.40;;;0.30;;
24159;SDS011;62385;41.594;23.808;2023-08-07T09:43:55;3.05;;;0.40;;
24159;SDS011;62385;41.594;23.808;2023-08-07T09:46:21;7.75;;;0.63;;
24159;SDS011;62385;41.594;23.808;2023-08-07T09:48:47;0.65;;;0.30;;
24159;SDS011;62385;41.594;23.808;2023-08-07T09:51:12;0.77;;;0.30;;
24159;SDS011;62385;41.594;23.808;2023-08-07T09:53:38;0.93;;;0.60;;
24159;SDS011;62385;41.594;23.808;2023-08-07T09:56:04;2.05;;;0.47;;
24159;SDS011;62385;41.594;23.808;2023-08-07T09:58:30;0.30;;;0.30;;
24159;SDS011;62385;41.594;23.808;2023-08-07T10:00:58;1.55;;;0.35;;
24159;SDS011;62385;41.594;23.808;2023-08-07T10:03:26;0.40;;;0.20;;
24159;SDS011;62385;41.594;23.808;2023-08-07T10:05:51;0.60;;;0.40;;
24159;SDS011;62385;41.594;23.808;2023-08-07T10:08:18;4.00;;;0.35;;
24159;SDS011;62385;41.594;23.808;2023-08-07T10:10:44;0.20;;;0.15;;
24159;SDS011;62385;41.594;23.808;2023-08-07T10:13:14;0.63;;;0.22;;
24159;SDS011;62385;41.594;23.808;2023-08-07T10:15:40;0.60;;;0.40;;
24159;SDS011;62385;41.594;23.808;2023-08-07T10:18:10;0.63;;;0.35;;
24159;SDS011;62385;41.594;23.808;2023-08-07T10:20:35;0.85;;;0.40;;
24159;SDS011;62385;41.594;23.808;2023-08-07T10:23:09;1.05;;;0.40;;
24159;SDS011;62385;41.594;23.808;2023-08-07T10:25:38;0.95;;;0.63;;
24159;SDS011;62385;41.594;23.808;2023-08-07T10:28:08;0.73;;;0.40;;
24159;SDS011;62385;41.594;23.808;2023-08-07T10:30:37;0.60;;;0.50;;
24159;SDS011;62385;41.594;23.808;2023-08-07T10:33:05;0.63;;;0.30;;
24159;SDS011;62385;41.594;23.808;2023-08-07T10:35:33;1.00;;;0.30;;
24159;SDS011;62385;41.594;23.808;2023-08-07T10:38:06;1.40;;;0.57;;
24159;SDS011;62385;41.594;23.808;2023-08-07T10:40:42;0.40;;;0.30;;
24159;SDS011;62385;41.594;23.808;2023-08-07T10:43:29;0.30;;;0.30;;
24159;SDS011;62385;41.594;23.808;2023-08-07T10:46:05;0.95;;;0.38;;
24159;SDS011;62385;41.594;23.808;2023-08-07T10:51:07;0.50;;;0.35;;
24159;SDS011;62385;41.594;23.808;2023-08-07T10:56:04;0.30;;;0.20;;
24159;SDS011;62385;41.594;23.808;2023-08-07T10:58:33;0.50;;;0.35;;
24159;SDS011;62385;41.594;23.808;2023-08-07T11:01:19;0.47;;;0.30;;
24159;SDS011;62385;41.594;23.808;2023-08-07T11:04:09;0.32;;;0.25;;
24159;SDS011;62385;41.594;23.808;2023-08-07T11:06:38;0.43;;;0.40;;
24159;SDS011;62385;41.594;23.808;2023-08-07T11:09:07;0.40;;;0.20;;
24159;SDS011;62385;41.594;23.808;2023-08-07T11:11:39;0.20;;;0.15;;
24159;SDS011;62385;41.594;23.808;2023-08-07T11:14:13;0.88;;;0.85;;
24159;SDS011;62385;41.594;23.808;2023-08-07T11:16:40;0.80;;;0.30;;
24159;SDS011;62385;41.594;23.808;2023-08-07T11:19:06;0.40;;;0.30;;
24159;SDS011;62385;41.594;23.808;2023-08-07T11:21:33;0.77;;;0.30;;
24159;SDS011;62385;41.594;23.808;2023-08-07T11:24:00;0.60;;;0.20;;
24159;SDS011;62385;41.594;23.808;2023-08-07T11:26:26;0.40;;;0.40;;
24159;SDS011;62385;41.594;23.808;2023-08-07T11:28:54;0.28;;;0.20;;
24159;SDS011;62385;41.594;23.808;2023-08-07T11:31:21;0.55;;;0.38;;
24159;SDS011;62385;41.594;23.808;2023-08-07T11:33:49;0.68;;;0.40;;
24159;SDS011;62385;41.594;23.808;2023-08-07T11:36:15;0.55;;;0.38;;
24159;SDS011;62385;41.594;23.808;2023-08-07T11:38:41;1.02;;;0.30;;
24159;SDS011;62385;41.594;23.808;2023-08-07T11:41:09;0.93;;;0.43;;
24159;SDS011;62385;41.594;23.808;2023-08-07T11:43:37;0.85;;;0.40;;
24159;SDS011;62385;41.594;23.808;2023-08-07T11:46:04;1.10;;;0.47;;
24159;SDS011;62385;41.594;23.808;2023-08-07T11:48:33;0.50;;;0.25;;
24159;SDS011;62385;41.594;23.808;2023-08-07T11:51:00;0.68;;;0.45;;
24159;SDS011;62385;41.594;23.808;2023-08-07T11:53:27;0.40;;;0.30;;
24159;SDS011;62385;41.594;23.808;2023-08-07T11:56:03;0.60;;;0.30;;
24159;SDS011;62385;41.594;23.808;2023-08-07T11:58:34;0.95;;;0.30;;
24159;SDS011;62385;41.594;23.808;2023-08-07T12:01:03;0.45;;;0.38;;
24159;SDS011;62385;41.594;23.808;2023-08-07T12:03:30;0.30;;;0.30;;
24159;SDS011;62385;41.594;23.808;2023-08-07T12:06:01;0.52;;;0.30;;
24159;SDS011;62385;41.594;23.808;2023-08-07T12:08:38;0.20;;;0.20;;
24159;SDS011;62385;41.594;23.808;2023-08-07T12:11:09;0.32;;;0.32;;
24159;SDS011;62385;41.594;23.808;2023-08-07T12:13:41;0.40;;;0.30;;
24159;SDS011;62385;41.594;23.808;2023-08-07T12:16:09;0.47;;;0.40;;
24159;SDS011;62385;41.594;23.808;2023-08-07T12:18:36;0.60;;;0.30;;
24159;SDS011;62385;41.594;23.808;2023-08-07T12:21:04;4.68;;;0.30;;
24159;SDS011;62385;41.594;23.808;2023-08-07T12:23:33;5.05;;;0.38;;
24159;SDS011;62385;41.594;23.808;2023-08-07T12:26:00;0.30;;;0.10;;
24159;SDS011;62385;41.594;23.808;2023-08-07T12:28:26;0.63;;;0.20;;
24159;SDS011;62385;41.594;23.808;2023-08-07T12:30:52;0.68;;;0.43;;
24159;SDS011;62385;41.594;23.808;2023-08-07T12:33:18;0.57;;;0.30;;
24159;SDS011;62385;41.594;23.808;2023-08-07T12:35:43;0.77;;;0.35;;
24159;SDS011;62385;41.594;23.808;2023-08-07T12:38:09;0.40;;;0.40;;
24159;SDS011;62385;41.594;23.808;2023-08-07T12:40:35;0.70;;;0.60;;
24159;SDS011;62385;41.594;23.808;2023-08-07T12:43:05;1.67;;;0.28;;
24159;SDS011;62385;41.594;23.808;2023-08-07T12:45:32;0.55;;;0.30;;
24159;SDS011;62385;41.594;23.808;2023-08-07T12:47:58;0.30;;;0.30;;
24159;SDS011;62385;41.594;23.808;2023-08-07T12:50:25;0.98;;;0.30;;
24159;SDS011;62385;41.594;23.808;2023-08-07T12:52:51;0.95;;;0.32;;
24159;SDS011;62385;41.594;23.808;2023-08-07T12:55:16;1.40;;;0.50;;
24159;SDS011;62385;41.594;23.808;2023-08-07T12:57:42;0.80;;;0.43;;
24159;SDS011;62385;41.594;23.808;2023-08-07T13:00:09;0.50;;;0.40;;
24159;SDS011;62385;41.594;23.808;2023-08-07T13:02:38;0.95;;;0.50;;
24159;SDS011;62385;41.594;23.808;2023-08-07T13:05:06;0.60;;;0.40;;
24159;SDS011;62385;41.594;23.808;2023-08-07T13:07:31;0.40;;;0.28;;
24159;SDS011;62385;41.594;23.808;2023-08-07T13:09:57;0.50;;;0.35;;
24159;SDS011;62385;41.594;23.808;2023-08-07T13:12:23;2.05;;;0.40;;
24159;SDS011;62385;41.594;23.808;2023-08-07T13:14:49;0.50;;;0.30;;
24159;SDS011;62385;41.594;23.808;2023-08-07T13:17:14;0.60;;;0.40;;
24159;SDS011;62385;41.594;23.808;2023-08-07T13:19:41;0.55;;;0.35;;
24159;SDS011;62385;41.594;23.808;2023-08-07T13:22:07;0.47;;;0.22;;
24159;SDS011;62385;41.594;23.808;2023-08-07T13:24:33;0.32;;;0.30;;
24159;SDS011;62385;41.594;23.808;2023-08-07T13:26:58;0.90;;;0.30;;
24159;SDS011;62385;41.594;23.808;2023-08-07T13:29:24;0.55;;;0.40;;
24159;SDS011;62385;41.594;23.808;2023-08-07T13:31:51;1.38;;;0.73;;
24159;SDS011;62385;41.594;23.808;2023-08-07T13:34:17;0.55;;;0.32;;
24159;SDS011;62385;41.594;23.808;2023-08-07T13:36:42;0.40;;;0.40;;
24159;SDS011;62385;41.594;23.808;2023-08-07T13:39:08;0.80;;;0.40;;
24159;SDS011;62385;41.594;23.808;2023-08-07T13:41:34;0.30;;;0.30;;
24159;SDS011;62385;41.594;23.808;2023-08-07T13:44:00;0.35;;;0.30;;
24159;SDS011;62385;41.594;23.808;2023-08-07T13:46:26;0.70;;;0.40;;
24159;SDS011;62385;41.594;23.808;2023-08-07T13:48:51;0.60;;;0.30;;
24159;SDS011;62385;41.594;23.808;2023-08-07T13:51:17;0.80;;;0.40;;
24159;SDS011;62385;41.594;23.808;2023-08-07T13:53:45;0.77;;;0.60;;
24159;SDS011;62385;41.594;23.808;2023-08-07T13:56:10;0.30;;;0.30;;
24159;SDS011;62385;41.594;23.808;2023-08-07T13:58:41;1.15;;;0.30;;
24159;SDS011;62385;41.594;23.808;2023-08-07T14:01:07;0.70;;;0.50;;
24159;SDS011;62385;41.594;23.808;2023-08-07T14:03:33;0.52;;;0.30;;
24159;SDS011;62385;41.594;23.808;2023-08-07T14:05:59;0.38;;;0.30;;
24159;SDS011;62385;41.594;23.808;2023-08-07T14:08:25;0.47;;;0.20;;
24159;SDS011;62385;41.594;23.808;2023-08-07T14:10:51;0.50;;;0.38;;
24159;SDS011;62385;41.594;23.808;2023-08-07T14:13:16;1.35;;;0.60;;
24159;SDS011;62385;41.594;23.808;2023-08-07T14:15:42;2.05;;;0.38;;
24159;SDS011;62385;41.594;23.808;2023-08-07T14:18:08;0.95;;;0.28;;
24159;SDS011;62385;41.594;23.808;2023-08-07T14:20:36;0.75;;;0.35;;
24159;SDS011;62385;41.594;23.808;2023-08-07T14:23:01;0.20;;;0.20;;
24159;SDS011;62385;41.594;23.808;2023-08-07T14:25:27;0.40;;;0.20;;
24159;SDS011;62385;41.594;23.808;2023-08-07T14:27:52;0.40;;;0.30;;
24159;SDS011;62385;41.594;23.808;2023-08-07T14:30:19;0.30;;;0.30;;
24159;SDS011;62385;41.594;23.808;2023-08-07T14:32:45;0.55;;;0.35;;
24159;SDS011;62385;41.594;23.808;2023-08-07T14:35:13;0.85;;;0.40;;
24159;SDS011;62385;41.594;23.808;2023-08-07T14:37:39;1.02;;;0.40;;
24159;SDS011;62385;41.594;23.808;2023-08-07T14:40:05;0.90;;;0.50;;